^^
Saratoga-Weather Station Historical Data
Daily Summary for June 2, 2020 Units:  Both    English   Metric
Daily Weekly Monthly Yearly Custom
  High: Low: Average:
Temperature: 38.8 °F /  3.8 °C 35.1 °F /  1.7 °C 36.9 °F /  2.7 °C
Dew Point: 38.1 °F /  3.4 °C 33.8 °F /  1 °C 35.6 °F /  2 °C
Humidity: 97% 91% 95%
Wind Speed: 6mph /  9.7km/h - 0.4mph /  0.7km/h
Wind Gust: 7mph /  11.3km/h - -
Wind- - East
Pressure: 30.1 in /  1018.0 hPa 29.9 in /  1012.5 hPa -
Precipitation: 0.02 in /  0.5 mm    
Historical Graphs
 
 
Tabular Data for June 2, 2020
Time Temperature Dew Point Pressure Wind Wind Speed Wind Gust Humidity Rainfall Rate (Hourly) solar
00:04 38.8 °F /  3.8 °C 38.1 °F /  3.4 °C 30.1in /  1018.0hPa East 0.9mph /  1.4km/h 2mph /  3.2km/h 97% 0in /  0.0mm 0 W/m2
00:09 38.8 °F /  3.8 °C 38.1 °F /  3.4 °C 30.1in /  1018.0hPa East 2mph /  3.2km/h 4mph /  6.4km/h 97% 0in /  0.0mm 0 W/m2
00:14 38.8 °F /  3.8 °C 38.1 °F /  3.4 °C 30.1in /  1018.0hPa ENE 0.9mph /  1.4km/h 4mph /  6.4km/h 97% 0in /  0.0mm 0 W/m2
00:19 38.8 °F /  3.8 °C 38.1 °F /  3.4 °C 30.1in /  1018.0hPa ESE 0.9mph /  1.4km/h 3mph /  4.8km/h 97% 0in /  0.0mm 0 W/m2
00:24 38.7 °F /  3.7 °C 37.9 °F /  3.3 °C 30.1in /  1018.0hPa East 2mph /  3.2km/h 2mph /  3.2km/h 97% 0in /  0.0mm 0 W/m2
00:29 38.7 °F /  3.7 °C 37.6 °F /  3.1 °C 30.1in /  1018.0hPa East 0.9mph /  1.4km/h 2mph /  3.2km/h 96% 0in /  0.0mm 0 W/m2
00:34 38.7 °F /  3.7 °C 37.6 °F /  3.1 °C 30.1in /  1018.0hPa Calm     96% 0in /  0.0mm 0 W/m2
00:39 38.7 °F /  3.7 °C 37.6 °F /  3.1 °C 30.1in /  1018.0hPa ESE 0.9mph /  1.4km/h 3mph /  4.8km/h 96% 0in /  0.0mm 0 W/m2
00:44 38.7 °F /  3.7 °C 37.6 °F /  3.1 °C 30.1in /  1018.0hPa Calm   2mph /  3.2km/h 96% 0in /  0.0mm 0 W/m2
00:49 38.7 °F /  3.7 °C 37.6 °F /  3.1 °C 30.1in /  1018.0hPa East 0.9mph /  1.4km/h 1mph /  1.6km/h 96% 0in /  0.0mm 0 W/m2
00:54 38.7 °F /  3.7 °C 37.6 °F /  3.1 °C 30.1in /  1018.0hPa ENE 0.9mph /  1.4km/h 2mph /  3.2km/h 96% 0in /  0.0mm 0 W/m2
00:59 38.7 °F /  3.7 °C 37.6 °F /  3.1 °C 30.1in /  1018.0hPa Calm     96% 0in /  0.0mm 0 W/m2
01:04 38.7 °F /  3.7 °C 37.6 °F /  3.1 °C 30.1in /  1018.0hPa Calm     96% 0in /  0.0mm 0 W/m2
01:09 38.7 °F /  3.7 °C 37.6 °F /  3.1 °C 30.1in /  1018.0hPa ENE 0.9mph /  1.4km/h 1mph /  1.6km/h 96% 0in /  0.0mm 0 W/m2
01:14 38.5 °F /  3.6 °C 37.4 °F /  3 °C 30.1in /  1018.0hPa SE 0.9mph /  1.4km/h 2mph /  3.2km/h 96% 0in /  0.0mm 0 W/m2
01:19 38.5 °F /  3.6 °C 37.4 °F /  3 °C 30.1in /  1018.0hPa Calm   1mph /  1.6km/h 96% 0in /  0.0mm 0 W/m2
01:24 38.5 °F /  3.6 °C 37.4 °F /  3 °C 30.1in /  1017.6hPa Calm   3mph /  4.8km/h 96% 0in /  0.0mm 0 W/m2
01:29 38.5 °F /  3.6 °C 37.4 °F /  3 °C 30.1in /  1018.0hPa Calm   1mph /  1.6km/h 96% 0in /  0.0mm 0 W/m2
01:34 38.3 °F /  3.5 °C 37.2 °F /  2.9 °C 30.1in /  1017.6hPa Calm   3mph /  4.8km/h 96% 0in /  0.0mm 0 W/m2
01:39 38.1 °F /  3.4 °C 37 °F /  2.8 °C 30.1in /  1017.6hPa Calm     96% 0in /  0.0mm 0 W/m2
01:44 38.1 °F /  3.4 °C 37 °F /  2.8 °C 30.1in /  1017.6hPa Calm     96% 0in /  0.0mm 0 W/m2
01:49 38.1 °F /  3.4 °C 37 °F /  2.8 °C 30.1in /  1017.6hPa Calm     96% 0in /  0.0mm 0 W/m2
01:54 37.9 °F /  3.3 °C 36.9 °F /  2.7 °C 30.1in /  1017.6hPa Calm     96% 0in /  0.0mm 0 W/m2
01:59 37.9 °F /  3.3 °C 36.9 °F /  2.7 °C 30.1in /  1017.6hPa Calm   3mph /  4.8km/h 96% 0in /  0.0mm 0 W/m2
02:04 37.9 °F /  3.3 °C 36.9 °F /  2.7 °C 30.1in /  1017.6hPa Calm   1mph /  1.6km/h 96% 0in /  0.0mm 0 W/m2
02:09 37.9 °F /  3.3 °C 36.9 °F /  2.7 °C 30.1in /  1017.6hPa Calm     96% 0in /  0.0mm 0 W/m2
02:14 37.9 °F /  3.3 °C 36.9 °F /  2.7 °C 30.1in /  1017.6hPa Calm     96% 0in /  0.0mm 0 W/m2
02:19 37.9 °F /  3.3 °C 36.9 °F /  2.7 °C 30.1in /  1017.6hPa Calm     96% 0in /  0.0mm 0 W/m2
02:24 37.9 °F /  3.3 °C 36.9 °F /  2.7 °C 30.1in /  1017.6hPa Calm     96% 0in /  0.0mm 0 W/m2
02:29 37.8 °F /  3.2 °C 36.7 °F /  2.6 °C 30.1in /  1017.6hPa Calm     96% 0in /  0.0mm 0 W/m2
02:34 37.6 °F /  3.1 °C 36.5 °F /  2.5 °C 30.1in /  1018.0hPa Calm     96% 0in /  0.0mm 0 W/m2
02:39 37.4 °F /  3 °C 36.3 °F /  2.4 °C 30.1in /  1018.0hPa Calm     96% 0in /  0.0mm 0 W/m2
02:44 37.2 °F /  2.9 °C 36.1 °F /  2.3 °C 30.1in /  1018.0hPa Calm     96% 0in /  0.0mm 0 W/m2
02:49 37.2 °F /  2.9 °C 36.1 °F /  2.3 °C 30.1in /  1018.0hPa Calm   2mph /  3.2km/h 96% 0in /  0.0mm 0 W/m2
02:54 37.2 °F /  2.9 °C 36.1 °F /  2.3 °C 30.1in /  1018.0hPa East 0.9mph /  1.4km/h 2mph /  3.2km/h 96% 0in /  0.0mm 0 W/m2
02:59 37.4 °F /  3 °C 36.3 °F /  2.4 °C 30.1in /  1018.0hPa SE 0.9mph /  1.4km/h 3mph /  4.8km/h 96% 0in /  0.0mm 0 W/m2
03:04 37.4 °F /  3 °C 36.3 °F /  2.4 °C 30.1in /  1018.0hPa East 0.9mph /  1.4km/h 7mph /  11.3km/h 96% 0in /  0.0mm 0 W/m2
03:09 37.2 °F /  2.9 °C 36.1 °F /  2.3 °C 30.1in /  1018.0hPa SE 2mph /  3.2km/h 3mph /  4.8km/h 96% 0in /  0.0mm 0 W/m2
03:14 37.2 °F /  2.9 °C 36.1 °F /  2.3 °C 30.1in /  1018.0hPa ESE 0.9mph /  1.4km/h 5mph /  8km/h 96% 0in /  0.0mm 0 W/m2
03:19 37.2 °F /  2.9 °C 36.1 °F /  2.3 °C 30.1in /  1018.0hPa ESE 0.9mph /  1.4km/h 2mph /  3.2km/h 96% 0in /  0.0mm 0 W/m2
03:24 37 °F /  2.8 °C 36 °F /  2.2 °C 30.1in /  1018.0hPa Calm   3mph /  4.8km/h 96% 0in /  0.0mm 0 W/m2
03:30 37 °F /  2.8 °C 36 °F /  2.2 °C 30.1in /  1018.0hPa Calm   1mph /  1.6km/h 96% 0in /  0.0mm 0 W/m2
03:35 36.9 °F /  2.7 °C 35.8 °F /  2.1 °C 30.1in /  1017.6hPa Calm   3mph /  4.8km/h 96% 0in /  0.0mm 0 W/m2
03:40 36.9 °F /  2.7 °C 35.8 °F /  2.1 °C 30.1in /  1018.0hPa East 0.9mph /  1.4km/h 2mph /  3.2km/h 96% 0in /  0.0mm 0 W/m2
03:45 36.9 °F /  2.7 °C 35.8 °F /  2.1 °C 30.1in /  1018.0hPa Calm   2mph /  3.2km/h 96% 0in /  0.0mm 0 W/m2
03:50 36.9 °F /  2.7 °C 35.8 °F /  2.1 °C 30.1in /  1018.0hPa Calm     96% 0in /  0.0mm 0 W/m2
03:55 36.7 °F /  2.6 °C 35.6 °F /  2 °C 30.1in /  1017.6hPa Calm   2mph /  3.2km/h 96% 0in /  0.0mm 0 W/m2
04:00 36.7 °F /  2.6 °C 35.6 °F /  2 °C 30.1in /  1018.0hPa Calm     96% 0in /  0.0mm 0 W/m2
04:05 36.7 °F /  2.6 °C 35.6 °F /  2 °C 30.1in /  1018.0hPa Calm   1mph /  1.6km/h 96% 0in /  0.0mm 0 W/m2
04:10 36.7 °F /  2.6 °C 35.6 °F /  2 °C 30.1in /  1018.0hPa Calm     96% 0in /  0.0mm 0 W/m2
04:15 36.7 °F /  2.6 °C 35.6 °F /  2 °C 30.1in /  1018.0hPa Calm     96% 0in /  0.0mm 0 W/m2
04:20 36.7 °F /  2.6 °C 35.6 °F /  2 °C 30.1in /  1018.0hPa Calm     96% 0in /  0.0mm 0 W/m2
04:25 36.9 °F /  2.7 °C 35.8 °F /  2.1 °C 30.1in /  1018.0hPa Calm     96% 0in /  0.0mm 0 W/m2
04:30 36.7 °F /  2.6 °C 35.6 °F /  2 °C 30.1in /  1018.0hPa Calm     96% 0in /  0.0mm 0 W/m2
04:35 36.9 °F /  2.7 °C 35.8 °F /  2.1 °C 30.1in /  1018.0hPa Calm     96% 0in /  0.0mm 0 W/m2
04:40 36.9 °F /  2.7 °C 35.8 °F /  2.1 °C 30.1in /  1018.0hPa Calm   1mph /  1.6km/h 96% 0in /  0.0mm 0 W/m2
04:45 36.9 °F /  2.7 °C 35.8 °F /  2.1 °C 30.1in /  1018.0hPa Calm     96% 0in /  0.0mm 0 W/m2
04:50 36.9 °F /  2.7 °C 35.8 °F /  2.1 °C 30.1in /  1018.0hPa Calm     96% 0in /  0.0mm 0 W/m2
04:55 36.9 °F /  2.7 °C 35.8 °F /  2.1 °C 30.1in /  1018.0hPa Calm     96% 0in /  0.0mm 0 W/m2
05:00 36.9 °F /  2.7 °C 35.8 °F /  2.1 °C 30.1in /  1018.0hPa Calm     96% 0in /  0.0mm 0 W/m2
05:05 36.9 °F /  2.7 °C 35.8 °F /  2.1 °C 30.1in /  1018.0hPa Calm     96% 0in /  0.0mm 0 W/m2
05:10 36.9 °F /  2.7 °C 35.8 °F /  2.1 °C 30.1in /  1018.0hPa Calm     96% 0in /  0.0mm 0 W/m2
05:15 36.9 °F /  2.7 °C 35.8 °F /  2.1 °C 30.1in /  1018.0hPa Calm     96% 0in /  0.0mm 0 W/m2
05:20 36.9 °F /  2.7 °C 35.8 °F /  2.1 °C 30.1in /  1018.0hPa Calm     96% 0in /  0.0mm 0 W/m2
05:25 36.9 °F /  2.7 °C 35.8 °F /  2.1 °C 30.1in /  1017.6hPa Calm     96% 0in /  0.0mm 0 W/m2
05:30 36.9 °F /  2.7 °C 35.8 °F /  2.1 °C 30.1in /  1017.6hPa Calm     96% 0in /  0.0mm 0 W/m2
05:35 36.9 °F /  2.7 °C 35.8 °F /  2.1 °C 30.1in /  1017.6hPa Calm     96% 0in /  0.0mm 0 W/m2
05:40 36.9 °F /  2.7 °C 36.1 °F /  2.3 °C 30.1in /  1017.6hPa Calm     97% 0in /  0.0mm 0 W/m2
05:45 36.9 °F /  2.7 °C 36.1 °F /  2.3 °C 30.1in /  1017.6hPa Calm     97% 0in /  0.0mm 0 W/m2
05:50 36.9 °F /  2.7 °C 36.1 °F /  2.3 °C 30.1in /  1017.6hPa Calm     97% 0in /  0.0mm 0 W/m2
05:55 36.9 °F /  2.7 °C 36.1 °F /  2.3 °C 30.1in /  1017.6hPa Calm     97% 0in /  0.0mm 0 W/m2
06:00 37 °F /  2.8 °C 36.3 °F /  2.4 °C 30.1in /  1017.6hPa Calm     97% 0in /  0.0mm 0 W/m2
06:05 37 °F /  2.8 °C 36.3 °F /  2.4 °C 30.1in /  1017.6hPa Calm     97% 0in /  0.0mm 0 W/m2
06:10 37 °F /  2.8 °C 36.3 °F /  2.4 °C 30.1in /  1017.6hPa ESE 0.9mph /  1.4km/h 1mph /  1.6km/h 97% 0in /  0.0mm 0 W/m2
06:15 37 °F /  2.8 °C 36.3 °F /  2.4 °C 30.1in /  1017.6hPa Calm     97% 0in /  0.0mm 0 W/m2
06:20 37 °F /  2.8 °C 36.3 °F /  2.4 °C 30.1in /  1017.6hPa Calm   1mph /  1.6km/h 97% 0in /  0.0mm 0 W/m2
06:25 37 °F /  2.8 °C 36.3 °F /  2.4 °C 30.1in /  1017.6hPa Calm     97% 0in /  0.0mm 0 W/m2
06:30 37 °F /  2.8 °C 36.3 °F /  2.4 °C 30.1in /  1017.6hPa Calm     97% 0in /  0.0mm 0 W/m2
06:35 36.9 °F /  2.7 °C 36.1 °F /  2.3 °C 30.1in /  1017.6hPa Calm     97% 0in /  0.0mm 0 W/m2
06:40 37 °F /  2.8 °C 36.3 °F /  2.4 °C 30.1in /  1017.6hPa Calm   2mph /  3.2km/h 97% 0in /  0.0mm 0 W/m2
06:45 37 °F /  2.8 °C 36.3 °F /  2.4 °C 30in /  1017.3hPa Calm   1mph /  1.6km/h 97% 0in /  0.0mm 0 W/m2
06:50 37 °F /  2.8 °C 36.3 °F /  2.4 °C 30in /  1017.3hPa Calm   1mph /  1.6km/h 97% 0in /  0.0mm 0 W/m2
06:55 37 °F /  2.8 °C 36.3 °F /  2.4 °C 30in /  1017.3hPa Calm     97% 0in /  0.0mm 0 W/m2
07:00 37 °F /  2.8 °C 36.3 °F /  2.4 °C 30in /  1017.3hPa Calm   1mph /  1.6km/h 97% 0in /  0.0mm 0 W/m2
07:05 37 °F /  2.8 °C 36.3 °F /  2.4 °C 30in /  1017.3hPa Calm   1mph /  1.6km/h 97% 0in /  0.0mm 0 W/m2
07:10 37 °F /  2.8 °C 36.3 °F /  2.4 °C 30in /  1017.3hPa Calm     97% 0in /  0.0mm 0 W/m2
07:15 37 °F /  2.8 °C 36.3 °F /  2.4 °C 30in /  1017.3hPa Calm   1mph /  1.6km/h 97% 0in /  0.0mm 0 W/m2
07:20 37 °F /  2.8 °C 36.3 °F /  2.4 °C 30in /  1017.3hPa Calm     97% 0in /  0.0mm 0 W/m2
07:25 37 °F /  2.8 °C 36.3 °F /  2.4 °C 30in /  1017.3hPa Calm   2mph /  3.2km/h 97% 0in /  0.0mm 0 W/m2
07:30 37 °F /  2.8 °C 36.3 °F /  2.4 °C 30in /  1017.3hPa Calm   1mph /  1.6km/h 97% 0in /  0.0mm 0 W/m2
07:35 37 °F /  2.8 °C 36.3 °F /  2.4 °C 30in /  1017.3hPa Calm   2mph /  3.2km/h 97% 0in /  0.0mm 0 W/m2
07:40 37 °F /  2.8 °C 36.3 °F /  2.4 °C 30in /  1017.3hPa Calm     97% 0in /  0.0mm 0 W/m2
07:45 37 °F /  2.8 °C 36.3 °F /  2.4 °C 30in /  1017.3hPa ESE 0.9mph /  1.4km/h 2mph /  3.2km/h 97% 0in /  0.0mm 0 W/m2
07:50 37 °F /  2.8 °C 36.3 °F /  2.4 °C 30in /  1017.3hPa Calm   2mph /  3.2km/h 97% 0in /  0.0mm 0 W/m2
07:55 37 °F /  2.8 °C 36 °F /  2.2 °C 30in /  1017.3hPa Calm   1mph /  1.6km/h 96% 0in /  0.0mm 0 W/m2
08:00 37 °F /  2.8 °C 36 °F /  2.2 °C 30in /  1017.3hPa Calm     96% 0in /  0.0mm 0 W/m2
08:05 37 °F /  2.8 °C 36 °F /  2.2 °C 30in /  1017.3hPa Calm     96% 0in /  0.0mm 0 W/m2
08:10 37 °F /  2.8 °C 36 °F /  2.2 °C 30in /  1017.3hPa Calm     96% 0in /  0.0mm 0 W/m2
08:15 37 °F /  2.8 °C 36 °F /  2.2 °C 30in /  1017.3hPa Calm     96% 0in /  0.0mm 0 W/m2
08:20 37 °F /  2.8 °C 36 °F /  2.2 °C 30in /  1017.3hPa Calm     96% 0in /  0.0mm 0 W/m2
08:25 37 °F /  2.8 °C 36 °F /  2.2 °C 30in /  1017.3hPa Calm   1mph /  1.6km/h 96% 0in /  0.0mm 0 W/m2
08:30 37 °F /  2.8 °C 36.3 °F /  2.4 °C 30in /  1017.3hPa Calm     97% 0in /  0.0mm 0 W/m2
08:35 37 °F /  2.8 °C 36.3 °F /  2.4 °C 30in /  1017.3hPa ESE 0.9mph /  1.4km/h 1mph /  1.6km/h 97% 0in /  0.0mm 0 W/m2
10:00 37.6 °F /  3.1 °C 36.5 °F /  2.5 °C 30in /  1017.3hPa ESE 0.9mph /  1.4km/h 2mph /  3.2km/h 96% 0in /  0.0mm 26 W/m2
10:05 37.6 °F /  3.1 °C 36.5 °F /  2.5 °C 30in /  1017.3hPa Calm     96% 0in /  0.0mm 30 W/m2
10:10 37.6 °F /  3.1 °C 36.5 °F /  2.5 °C 30in /  1017.3hPa ESE 0.9mph /  1.4km/h 2mph /  3.2km/h 96% 0in /  0.0mm 18 W/m2
10:15 37.8 °F /  3.2 °C 36.7 °F /  2.6 °C 30in /  1017.3hPa Calm   1mph /  1.6km/h 96% 0in /  0.0mm 35 W/m2
10:20 37.8 °F /  3.2 °C 36.7 °F /  2.6 °C 30in /  1016.9hPa Calm   1mph /  1.6km/h 96% 0in /  0.0mm 49 W/m2
10:25 37.8 °F /  3.2 °C 36.7 °F /  2.6 °C 30in /  1016.9hPa Calm   1mph /  1.6km/h 96% 0in /  0.0mm 49 W/m2
10:30 37.8 °F /  3.2 °C 36.7 °F /  2.6 °C 30in /  1017.3hPa East 0.9mph /  1.4km/h 4mph /  6.4km/h 96% 0in /  0.0mm 39 W/m2
10:35 37.8 °F /  3.2 °C 36.7 °F /  2.6 °C 30in /  1017.3hPa ESE 0.9mph /  1.4km/h 2mph /  3.2km/h 96% 0in /  0.0mm 32 W/m2
10:40 37.8 °F /  3.2 °C 36.7 °F /  2.6 °C 30in /  1017.3hPa Calm   4mph /  6.4km/h 96% 0in /  0.0mm 39 W/m2
10:45 37.9 °F /  3.3 °C 36.9 °F /  2.7 °C 30in /  1016.9hPa NE 0.9mph /  1.4km/h 2mph /  3.2km/h 96% 0in /  0.0mm 44 W/m2
10:50 37.9 °F /  3.3 °C 36.7 °F /  2.6 °C 30in /  1016.9hPa NE 0.9mph /  1.4km/h 4mph /  6.4km/h 95% 0in /  0.0mm 35 W/m2
10:55 37.9 °F /  3.3 °C 36.7 °F /  2.6 °C 30in /  1016.9hPa East 2mph /  3.2km/h 2mph /  3.2km/h 95% 0in /  0.0mm 44 W/m2
11:00 38.1 °F /  3.4 °C 36.9 °F /  2.7 °C 30in /  1016.9hPa ESE 2mph /  3.2km/h 3mph /  4.8km/h 95% 0in /  0.0mm 49 W/m2
11:05 38.1 °F /  3.4 °C 36.9 °F /  2.7 °C 30in /  1016.9hPa ESE 0.9mph /  1.4km/h 2mph /  3.2km/h 95% 0in /  0.0mm 54 W/m2
11:10 38.1 °F /  3.4 °C 36.9 °F /  2.7 °C 30in /  1016.9hPa East 0.9mph /  1.4km/h 4mph /  6.4km/h 95% 0in /  0.0mm 51 W/m2
11:15 38.1 °F /  3.4 °C 36.5 °F /  2.5 °C 30in /  1016.9hPa Calm   2mph /  3.2km/h 94% 0in /  0.0mm 42 W/m2
11:20 38.3 °F /  3.5 °C 36.7 °F /  2.6 °C 30in /  1016.9hPa Calm   4mph /  6.4km/h 94% 0in /  0.0mm 56 W/m2
11:25 38.3 °F /  3.5 °C 36.7 °F /  2.6 °C 30in /  1016.9hPa East 2mph /  3.2km/h 2mph /  3.2km/h 94% 0in /  0.0mm 44 W/m2
11:30 38.3 °F /  3.5 °C 36.7 °F /  2.6 °C 30in /  1016.9hPa East 2.9mph /  4.7km/h 4mph /  6.4km/h 94% 0in /  0.0mm 44 W/m2
11:35 38.3 °F /  3.5 °C 36.7 °F /  2.6 °C 30in /  1016.6hPa ESE 0.9mph /  1.4km/h 3mph /  4.8km/h 94% 0in /  0.0mm 39 W/m2
11:40 38.3 °F /  3.5 °C 36.7 °F /  2.6 °C 30in /  1016.6hPa East 0.9mph /  1.4km/h 2mph /  3.2km/h 94% 0in /  0.0mm 37 W/m2
11:45 38.1 °F /  3.4 °C 36.3 °F /  2.4 °C 30in /  1016.6hPa Calm   1mph /  1.6km/h 93% 0in /  0.0mm 42 W/m2
11:50 38.1 °F /  3.4 °C 36.3 °F /  2.4 °C 30in /  1016.6hPa Calm   4mph /  6.4km/h 93% 0in /  0.0mm 39 W/m2
11:55 38.1 °F /  3.4 °C 36.3 °F /  2.4 °C 30in /  1016.3hPa Calm   2mph /  3.2km/h 93% 0in /  0.0mm 33 W/m2
12:00 38.1 °F /  3.4 °C 36.3 °F /  2.4 °C 30in /  1016.3hPa Calm   4mph /  6.4km/h 93% 0in /  0.0mm 37 W/m2
12:05 38.1 °F /  3.4 °C 36.3 °F /  2.4 °C 30in /  1016.3hPa NE 2mph /  3.2km/h 4mph /  6.4km/h 93% 0in /  0.0mm 39 W/m2
12:10 38.1 °F /  3.4 °C 36.3 °F /  2.4 °C 30in /  1016.3hPa Calm   3mph /  4.8km/h 93% 0in /  0.0mm 23 W/m2
12:15 38.1 °F /  3.4 °C 36.3 °F /  2.4 °C 30in /  1016.3hPa Calm   4mph /  6.4km/h 93% 0in /  0.0mm 28 W/m2
12:20 38.1 °F /  3.4 °C 36.3 °F /  2.4 °C 30in /  1015.9hPa East 2mph /  3.2km/h 2mph /  3.2km/h 93% 0in /  0.0mm 26 W/m2
12:25 38.1 °F /  3.4 °C 36.3 °F /  2.4 °C 30in /  1015.9hPa East 0.9mph /  1.4km/h 2mph /  3.2km/h 93% 0in /  0.0mm 28 W/m2
12:30 38.1 °F /  3.4 °C 36.3 °F /  2.4 °C 30in /  1015.9hPa Calm   2mph /  3.2km/h 93% 0in /  0.0mm 28 W/m2
12:35 38.1 °F /  3.4 °C 36.3 °F /  2.4 °C 30in /  1015.6hPa East 2.9mph /  4.7km/h 6mph /  9.7km/h 93% 0in /  0.0mm 26 W/m2
12:40 37.9 °F /  3.3 °C 35.8 °F /  2.1 °C 30in /  1015.6hPa ESE 0.9mph /  1.4km/h 5mph /  8km/h 92% 0in /  0.0mm 28 W/m2
12:45 37.9 °F /  3.3 °C 35.8 °F /  2.1 °C 30in /  1015.6hPa East 0.9mph /  1.4km/h 3mph /  4.8km/h 92% 0in /  0.0mm 28 W/m2
12:50 37.9 °F /  3.3 °C 35.8 °F /  2.1 °C 30in /  1015.6hPa East 2mph /  3.2km/h 2mph /  3.2km/h 92% 0in /  0.0mm 30 W/m2
12:55 37.8 °F /  3.2 °C 35.6 °F /  2 °C 30in /  1015.6hPa East 0.9mph /  1.4km/h 3mph /  4.8km/h 92% 0in /  0.0mm 32 W/m2
13:01 37.8 °F /  3.2 °C 35.6 °F /  2 °C 30in /  1015.2hPa ENE 0.9mph /  1.4km/h 1mph /  1.6km/h 92% 0in /  0.0mm 28 W/m2
13:06 37.8 °F /  3.2 °C 35.6 °F /  2 °C 30in /  1015.6hPa SE 2mph /  3.2km/h 3mph /  4.8km/h 92% 0in /  0.0mm 26 W/m2
13:11 37.8 °F /  3.2 °C 35.6 °F /  2 °C 30in /  1015.6hPa East 4mph /  6.4km/h 4mph /  6.4km/h 92% 0in /  0.0mm 25 W/m2
13:16 37.8 °F /  3.2 °C 35.6 °F /  2 °C 30in /  1015.6hPa ESE 0.9mph /  1.4km/h 1mph /  1.6km/h 92% 0in /  0.0mm 25 W/m2
13:21 37.8 °F /  3.2 °C 35.6 °F /  2 °C 30in /  1015.6hPa East 2mph /  3.2km/h 2mph /  3.2km/h 92% 0in /  0.0mm 26 W/m2
13:26 37.8 °F /  3.2 °C 35.6 °F /  2 °C 30in /  1015.6hPa East 2mph /  3.2km/h 3mph /  4.8km/h 92% 0in /  0.0mm 26 W/m2
13:31 37.8 °F /  3.2 °C 35.6 °F /  2 °C 30in /  1015.6hPa ENE 2.9mph /  4.7km/h 3mph /  4.8km/h 92% 0in /  0.0mm 26 W/m2
13:36 37.8 °F /  3.2 °C 35.4 °F /  1.9 °C 30in /  1015.2hPa Calm   3mph /  4.8km/h 91% 0in /  0.0mm 25 W/m2
13:41 37.8 °F /  3.2 °C 35.6 °F /  2 °C 30in /  1015.2hPa Calm   1mph /  1.6km/h 92% 0in /  0.0mm 26 W/m2
13:46 37.8 °F /  3.2 °C 35.6 °F /  2 °C 30in /  1015.2hPa Calm   3mph /  4.8km/h 92% 0in /  0.0mm 26 W/m2
13:51 37.8 °F /  3.2 °C 35.6 °F /  2 °C 30in /  1015.2hPa East 2mph /  3.2km/h 2mph /  3.2km/h 92% 0in /  0.0mm 26 W/m2
13:56 37.8 °F /  3.2 °C 35.6 °F /  2 °C 30in /  1014.9hPa ENE 0.9mph /  1.4km/h 2mph /  3.2km/h 92% 0in /  0.0mm 28 W/m2
14:01 37.8 °F /  3.2 °C 35.6 °F /  2 °C 30in /  1014.9hPa Calm   1mph /  1.6km/h 92% 0in /  0.0mm 25 W/m2
14:06 37.8 °F /  3.2 °C 35.6 °F /  2 °C 30in /  1014.9hPa Calm   1mph /  1.6km/h 92% 0in /  0.0mm 25 W/m2
14:11 37.8 °F /  3.2 °C 35.6 °F /  2 °C 30in /  1014.9hPa SE 2mph /  3.2km/h 2mph /  3.2km/h 92% 0in /  0.0mm 25 W/m2
14:16 37.8 °F /  3.2 °C 35.6 °F /  2 °C 30in /  1014.9hPa Calm   1mph /  1.6km/h 92% 0in /  0.0mm 23 W/m2
14:21 37.8 °F /  3.2 °C 35.6 °F /  2 °C 30in /  1014.9hPa Calm     92% 0in /  0.0mm 21 W/m2
14:26 37.6 °F /  3.1 °C 35.4 °F /  1.9 °C 30in /  1014.9hPa ESE 0.9mph /  1.4km/h 2mph /  3.2km/h 92% 0in /  0.0mm 21 W/m2
14:31 37.6 °F /  3.1 °C 35.4 °F /  1.9 °C 30in /  1014.9hPa Calm     92% 0in /  0.0mm 21 W/m2
14:36 37.6 °F /  3.1 °C 35.4 °F /  1.9 °C 30in /  1014.9hPa ESE 0.9mph /  1.4km/h 2mph /  3.2km/h 92% 0in /  0.0mm 19 W/m2
14:43 37.6 °F /  3.1 °C 35.4 °F /  1.9 °C 30in /  1014.9hPa Calm   2mph /  3.2km/h 92% 0in /  0.0mm 19 W/m2
14:46 37.4 °F /  3 °C 35.2 °F /  1.8 °C 30in /  1014.9hPa Calm   3mph /  4.8km/h 92% 0in /  0.0mm 18 W/m2
14:51 37.4 °F /  3 °C 35.2 °F /  1.8 °C 30in /  1014.9hPa ESE 0.9mph /  1.4km/h 1mph /  1.6km/h 92% 0in /  0.0mm 16 W/m2
14:56 37.4 °F /  3 °C 35.2 °F /  1.8 °C 30in /  1014.9hPa Calm   1mph /  1.6km/h 92% 0in /  0.0mm 19 W/m2
15:01 37.2 °F /  2.9 °C 35.1 °F /  1.7 °C 30in /  1014.9hPa ESE 0.9mph /  1.4km/h 1mph /  1.6km/h 92% 0in /  0.0mm 19 W/m2
15:06 37.2 °F /  2.9 °C 35.1 °F /  1.7 °C 30in /  1014.9hPa Calm   1mph /  1.6km/h 92% 0in /  0.0mm 16 W/m2
15:11 37.2 °F /  2.9 °C 35.1 °F /  1.7 °C 30in /  1014.9hPa Calm     92% 0in /  0.0mm 18 W/m2
15:16 37.2 °F /  2.9 °C 35.1 °F /  1.7 °C 30in /  1014.9hPa Calm   1mph /  1.6km/h 92% 0in /  0.0mm 19 W/m2
15:21 37.2 °F /  2.9 °C 35.1 °F /  1.7 °C 30in /  1014.9hPa ESE 2mph /  3.2km/h 2mph /  3.2km/h 92% 0in /  0.0mm 23 W/m2
15:26 37.2 °F /  2.9 °C 35.1 °F /  1.7 °C 30in /  1014.9hPa East 2mph /  3.2km/h 3mph /  4.8km/h 92% 0in /  0.0mm 21 W/m2
15:31 37.2 °F /  2.9 °C 35.1 °F /  1.7 °C 30in /  1014.9hPa Calm     92% 0in /  0.0mm 18 W/m2
15:36 37.2 °F /  2.9 °C 35.1 °F /  1.7 °C 30in /  1014.9hPa East 0.9mph /  1.4km/h 3mph /  4.8km/h 92% 0in /  0.0mm 14 W/m2
15:41 37.2 °F /  2.9 °C 35.1 °F /  1.7 °C 30in /  1014.6hPa Calm   3mph /  4.8km/h 92% 0in /  0.0mm 12 W/m2
15:46 37.2 °F /  2.9 °C 35.1 °F /  1.7 °C 30in /  1014.6hPa East 0.9mph /  1.4km/h 1mph /  1.6km/h 92% 0in /  0.0mm 16 W/m2
15:51 37.2 °F /  2.9 °C 35.1 °F /  1.7 °C 30in /  1014.6hPa Calm   2mph /  3.2km/h 92% 0in /  0.0mm 19 W/m2
15:56 37.2 °F /  2.9 °C 35.1 °F /  1.7 °C 30in /  1014.6hPa ESE 0.9mph /  1.4km/h 2mph /  3.2km/h 92% 0in /  0.0mm 9 W/m2
16:01 37.2 °F /  2.9 °C 35.4 °F /  1.9 °C 30in /  1014.6hPa East 2mph /  3.2km/h 3mph /  4.8km/h 93% 0in /  0.0mm 9 W/m2
16:06 37 °F /  2.8 °C 34.9 °F /  1.6 °C 30in /  1014.6hPa ESE 0.9mph /  1.4km/h 2mph /  3.2km/h 92% 0in /  0.0mm 7 W/m2
16:11 37 °F /  2.8 °C 35.2 °F /  1.8 °C 30in /  1014.6hPa ESE 2mph /  3.2km/h 3mph /  4.8km/h 93% 0in /  0.0mm 9 W/m2
16:16 37 °F /  2.8 °C 35.2 °F /  1.8 °C 30in /  1014.6hPa ESE 6mph /  9.7km/h 6mph /  9.7km/h 93% 0in /  0.0mm 7 W/m2
16:21 37 °F /  2.8 °C 35.2 °F /  1.8 °C 30in /  1014.6hPa ESE 0.9mph /  1.4km/h 3mph /  4.8km/h 93% 0in /  0.0mm 5 W/m2
16:26 36.9 °F /  2.7 °C 35.1 °F /  1.7 °C 30in /  1014.6hPa ESE 2mph /  3.2km/h 4mph /  6.4km/h 93% 0in /  0.0mm 5 W/m2
16:31 36.9 °F /  2.7 °C 35.1 °F /  1.7 °C 30in /  1014.6hPa ENE 2mph /  3.2km/h 4mph /  6.4km/h 93% 0in /  0.0mm 0 W/m2
16:36 36.7 °F /  2.6 °C 35.1 °F /  1.7 °C 30in /  1014.6hPa Calm   3mph /  4.8km/h 94% 0in /  0.0mm 0 W/m2
16:41 36.7 °F /  2.6 °C 34.9 °F /  1.6 °C 30in /  1014.2hPa Calm   2mph /  3.2km/h 93% 0in /  0.0mm 0 W/m2
16:46 36.7 °F /  2.6 °C 35.1 °F /  1.7 °C 30in /  1014.2hPa Calm   3mph /  4.8km/h 94% 0in /  0.0mm 0 W/m2
16:51 36.5 °F /  2.5 °C 34.9 °F /  1.6 °C 30in /  1014.6hPa Calm   1mph /  1.6km/h 94% 0in /  0.0mm 0 W/m2
16:56 36.3 °F /  2.4 °C 34.7 °F /  1.5 °C 30in /  1014.6hPa East 2mph /  3.2km/h 3mph /  4.8km/h 94% 0in /  0.0mm 0 W/m2
17:01 36.3 °F /  2.4 °C 34.7 °F /  1.5 °C 30in /  1014.6hPa Calm   2mph /  3.2km/h 94% 0in /  0.0mm 0 W/m2
17:06 36.3 °F /  2.4 °C 34.7 °F /  1.5 °C 30in /  1014.6hPa ESE 0.9mph /  1.4km/h 2mph /  3.2km/h 94% 0in /  0.0mm 0 W/m2
17:11 36.3 °F /  2.4 °C 34.7 °F /  1.5 °C 30in /  1014.6hPa ESE 0.9mph /  1.4km/h 1mph /  1.6km/h 94% 0in /  0.0mm 0 W/m2
17:16 36.3 °F /  2.4 °C 34.7 °F /  1.5 °C 30in /  1014.2hPa Calm   1mph /  1.6km/h 94% 0in /  0.0mm 0 W/m2
17:21 36.3 °F /  2.4 °C 34.7 °F /  1.5 °C 30in /  1014.6hPa ESE 0.9mph /  1.4km/h 2mph /  3.2km/h 94% 0in /  0.0mm 0 W/m2
17:26 36.1 °F /  2.3 °C 34.5 °F /  1.4 °C 30in /  1014.6hPa Calm     94% 0in /  0.0mm 0 W/m2
17:31 36.1 °F /  2.3 °C 34.5 °F /  1.4 °C 30in /  1014.2hPa Calm     94% 0in /  0.0mm 0 W/m2
17:36 36.1 °F /  2.3 °C 34.5 °F /  1.4 °C 30in /  1014.2hPa Calm   1mph /  1.6km/h 94% 0in /  0.0mm 0 W/m2
17:41 36.1 °F /  2.3 °C 34.5 °F /  1.4 °C 30in /  1014.2hPa ESE 0.9mph /  1.4km/h 2mph /  3.2km/h 94% 0in /  0.0mm 0 W/m2
17:46 36.3 °F /  2.4 °C 34.7 °F /  1.5 °C 30in /  1014.2hPa Calm   2mph /  3.2km/h 94% 0in /  0.0mm 0 W/m2
17:51 36.3 °F /  2.4 °C 34.7 °F /  1.5 °C 29.9in /  1013.9hPa ESE 0.9mph /  1.4km/h 1mph /  1.6km/h 94% 0in /  0.0mm 0 W/m2
17:56 36.3 °F /  2.4 °C 34.7 °F /  1.5 °C 30in /  1014.2hPa Calm   2mph /  3.2km/h 94% 0in /  0.0mm 0 W/m2
18:01 36.1 °F /  2.3 °C 34.5 °F /  1.4 °C 30in /  1014.2hPa ESE 2mph /  3.2km/h 2mph /  3.2km/h 94% 0in /  0.0mm 0 W/m2
18:06 36.1 °F /  2.3 °C 34.5 °F /  1.4 °C 29.9in /  1013.9hPa East 0.9mph /  1.4km/h 2mph /  3.2km/h 94% 0in /  0.0mm 0 W/m2
18:11 36.1 °F /  2.3 °C 34.5 °F /  1.4 °C 30in /  1014.2hPa Calm     94% 0in /  0.0mm 0 W/m2
18:16 36 °F /  2.2 °C 34.3 °F /  1.3 °C 30in /  1014.2hPa Calm   1mph /  1.6km/h 94% 0in /  0.0mm 0 W/m2
18:21 36 °F /  2.2 °C 34.3 °F /  1.3 °C 30in /  1014.2hPa ESE 2mph /  3.2km/h 3mph /  4.8km/h 94% 0in /  0.0mm 0 W/m2
18:26 36 °F /  2.2 °C 34.3 °F /  1.3 °C 30in /  1014.2hPa Calm     94% 0in /  0.0mm 0 W/m2
18:31 36 °F /  2.2 °C 34.3 °F /  1.3 °C 30in /  1014.2hPa Calm   1mph /  1.6km/h 94% 0in /  0.0mm 0 W/m2
18:36 36 °F /  2.2 °C 34.7 °F /  1.5 °C 30in /  1014.2hPa ESE 0.9mph /  1.4km/h 2mph /  3.2km/h 95% 0in /  0.0mm 0 W/m2
18:41 36 °F /  2.2 °C 34.3 °F /  1.3 °C 30in /  1014.2hPa SE 0.9mph /  1.4km/h 2mph /  3.2km/h 94% 0in /  0.0mm 0 W/m2
18:46 36 °F /  2.2 °C 34.3 °F /  1.3 °C 30in /  1014.2hPa ESE 0.9mph /  1.4km/h 2mph /  3.2km/h 94% 0in /  0.0mm 0 W/m2
18:51 35.8 °F /  2.1 °C 34.5 °F /  1.4 °C 30in /  1014.2hPa Calm   1mph /  1.6km/h 95% 0in /  0.0mm 0 W/m2
18:56 35.8 °F /  2.1 °C 34.5 °F /  1.4 °C 30in /  1014.2hPa Calm   1mph /  1.6km/h 95% 0in /  0.0mm 0 W/m2
19:01 35.8 °F /  2.1 °C 34.5 °F /  1.4 °C 30in /  1014.2hPa Calm   3mph /  4.8km/h 95% 0in /  0.0mm 0 W/m2
19:06 35.6 °F /  2 °C 34.3 °F /  1.3 °C 30in /  1014.2hPa Calm   1mph /  1.6km/h 95% 0in /  0.0mm 0 W/m2
19:11 35.6 °F /  2 °C 34.3 °F /  1.3 °C 30in /  1014.2hPa Calm   3mph /  4.8km/h 95% 0in /  0.0mm 0 W/m2
19:16 35.4 °F /  1.9 °C 34.2 °F /  1.2 °C 30in /  1014.2hPa East 0.9mph /  1.4km/h 2mph /  3.2km/h 95% 0in /  0.0mm 0 W/m2
19:21 35.4 °F /  1.9 °C 34.2 °F /  1.2 °C 29.9in /  1013.9hPa Calm     95% 0in /  0.0mm 0 W/m2
19:26 35.4 °F /  1.9 °C 34.2 °F /  1.2 °C 29.9in /  1013.9hPa Calm   1mph /  1.6km/h 95% 0in /  0.0mm 0 W/m2
19:31 35.4 °F /  1.9 °C 34.2 °F /  1.2 °C 29.9in /  1013.9hPa Calm   2mph /  3.2km/h 95% 0in /  0.0mm 0 W/m2
19:36 35.4 °F /  1.9 °C 34.2 °F /  1.2 °C 29.9in /  1013.9hPa Calm   1mph /  1.6km/h 95% 0in /  0.0mm 0 W/m2
19:41 35.4 °F /  1.9 °C 34.2 °F /  1.2 °C 29.9in /  1013.9hPa Calm   2mph /  3.2km/h 95% 0in /  0.0mm 0 W/m2
19:46 35.2 °F /  1.8 °C 34 °F /  1.1 °C 29.9in /  1013.9hPa Calm   3mph /  4.8km/h 95% 0in /  0.0mm 0 W/m2
19:52 35.2 °F /  1.8 °C 34 °F /  1.1 °C 29.9in /  1013.9hPa Calm   2mph /  3.2km/h 95% 0in /  0.0mm 0 W/m2
19:57 35.2 °F /  1.8 °C 34 °F /  1.1 °C 29.9in /  1013.9hPa Calm     95% 0in /  0.0mm 0 W/m2
20:02 35.2 °F /  1.8 °C 34 °F /  1.1 °C 29.9in /  1013.9hPa Calm     95% 0in /  0.0mm 0 W/m2
20:07 35.2 °F /  1.8 °C 34 °F /  1.1 °C 29.9in /  1013.9hPa Calm     95% 0in /  0.0mm 0 W/m2
20:12 35.2 °F /  1.8 °C 34 °F /  1.1 °C 29.9in /  1013.5hPa East 2mph /  3.2km/h 2mph /  3.2km/h 95% 0in /  0.0mm 0 W/m2
20:17 35.2 °F /  1.8 °C 34 °F /  1.1 °C 29.9in /  1013.5hPa Calm   2mph /  3.2km/h 95% 0in /  0.0mm 0 W/m2
20:22 35.2 °F /  1.8 °C 34 °F /  1.1 °C 29.9in /  1013.5hPa Calm   2mph /  3.2km/h 95% 0in /  0.0mm 0 W/m2
20:27 35.2 °F /  1.8 °C 34 °F /  1.1 °C 29.9in /  1013.5hPa Calm     95% 0in /  0.0mm 0 W/m2
20:32 35.2 °F /  1.8 °C 34 °F /  1.1 °C 29.9in /  1013.5hPa Calm     95% 0in /  0.0mm 0 W/m2
20:37 35.2 °F /  1.8 °C 34 °F /  1.1 °C 29.9in /  1013.5hPa Calm     95% 0in /  0.0mm 0 W/m2
20:42 35.2 °F /  1.8 °C 34 °F /  1.1 °C 29.9in /  1013.5hPa Calm     95% 0in /  0.0mm 0 W/m2
20:47 35.2 °F /  1.8 °C 34 °F /  1.1 °C 29.9in /  1013.5hPa Calm     95% 0in /  0.0mm 0 W/m2
20:52 35.2 °F /  1.8 °C 34 °F /  1.1 °C 29.9in /  1013.5hPa Calm     95% 0in /  0.0mm 0 W/m2
20:57 35.2 °F /  1.8 °C 34 °F /  1.1 °C 29.9in /  1013.5hPa Calm     95% 0in /  0.0mm 0 W/m2
21:02 35.2 °F /  1.8 °C 34 °F /  1.1 °C 29.9in /  1013.5hPa Calm     95% 0in /  0.0mm 0 W/m2
21:07 35.2 °F /  1.8 °C 34 °F /  1.1 °C 29.9in /  1013.5hPa ESE 0.9mph /  1.4km/h 1mph /  1.6km/h 95% 0in /  0.0mm 0 W/m2
21:12 35.2 °F /  1.8 °C 34 °F /  1.1 °C 29.9in /  1013.5hPa Calm     95% 0in /  0.0mm 0 W/m2
21:17 35.2 °F /  1.8 °C 34 °F /  1.1 °C 29.9in /  1013.5hPa Calm   2mph /  3.2km/h 95% 0in /  0.0mm 0 W/m2
21:22 35.2 °F /  1.8 °C 34 °F /  1.1 °C 29.9in /  1013.5hPa ESE 0.9mph /  1.4km/h 2mph /  3.2km/h 95% 0in /  0.0mm 0 W/m2
21:27 35.2 °F /  1.8 °C 34 °F /  1.1 °C 29.9in /  1013.5hPa ESE 0.9mph /  1.4km/h 2mph /  3.2km/h 95% 0in /  0.0mm 0 W/m2
21:32 35.2 °F /  1.8 °C 34 °F /  1.1 °C 29.9in /  1013.5hPa Calm   2mph /  3.2km/h 95% 0in /  0.0mm 0 W/m2
21:37 35.4 °F /  1.9 °C 34.2 °F /  1.2 °C 29.9in /  1013.5hPa Calm     95% 0in /  0.0mm 0 W/m2
21:42 35.4 °F /  1.9 °C 34.2 °F /  1.2 °C 29.9in /  1013.2hPa Calm   2mph /  3.2km/h 95% 0in /  0.0mm 0 W/m2
21:47 35.4 °F /  1.9 °C 34.2 °F /  1.2 °C 29.9in /  1013.2hPa Calm     95% 0in /  0.0mm 0 W/m2
21:52 35.4 °F /  1.9 °C 34.2 °F /  1.2 °C 29.9in /  1013.2hPa Calm     95% 0in /  0.0mm 0 W/m2
21:57 35.4 °F /  1.9 °C 34.2 °F /  1.2 °C 29.9in /  1013.2hPa Calm     95% 0in /  0.0mm 0 W/m2
22:02 35.4 °F /  1.9 °C 34.2 °F /  1.2 °C 29.9in /  1013.2hPa Calm     95% 0in /  0.0mm 0 W/m2
22:07 35.4 °F /  1.9 °C 34.2 °F /  1.2 °C 29.9in /  1013.2hPa Calm   1mph /  1.6km/h 95% 0in /  0.0mm 0 W/m2
22:12 35.4 °F /  1.9 °C 34.2 °F /  1.2 °C 29.9in /  1013.2hPa Calm     95% 0in /  0.0mm 0 W/m2
22:17 35.4 °F /  1.9 °C 34.2 °F /  1.2 °C 29.9in /  1012.9hPa Calm   3mph /  4.8km/h 95% 0in /  0.0mm 0 W/m2
22:22 35.4 °F /  1.9 °C 34.2 °F /  1.2 °C 29.9in /  1012.9hPa Calm   3mph /  4.8km/h 95% 0in /  0.0mm 0 W/m2
22:27 35.4 °F /  1.9 °C 34.2 °F /  1.2 °C 29.9in /  1012.9hPa ESE 0.9mph /  1.4km/h 2mph /  3.2km/h 95% 0in /  0.0mm 0 W/m2
22:32 35.6 °F /  2 °C 34.3 °F /  1.3 °C 29.9in /  1012.9hPa Calm   3mph /  4.8km/h 95% 0in /  0.0mm 0 W/m2
22:37 35.6 °F /  2 °C 34.3 °F /  1.3 °C 29.9in /  1012.9hPa Calm     95% 0in /  0.0mm 0 W/m2
22:42 35.6 °F /  2 °C 34.3 °F /  1.3 °C 29.9in /  1012.9hPa Calm   2mph /  3.2km/h 95% 0in /  0.0mm 0 W/m2
22:47 35.4 °F /  1.9 °C 34.2 °F /  1.2 °C 29.9in /  1012.9hPa Calm   3mph /  4.8km/h 95% 0in /  0.0mm 0 W/m2
22:52 35.4 °F /  1.9 °C 34.2 °F /  1.2 °C 29.9in /  1012.9hPa Calm   2mph /  3.2km/h 95% 0in /  0.0mm 0 W/m2
22:57 35.4 °F /  1.9 °C 34.2 °F /  1.2 °C 29.9in /  1012.9hPa ESE 2mph /  3.2km/h 2mph /  3.2km/h 95% 0in /  0.0mm 0 W/m2
23:02 35.4 °F /  1.9 °C 34.2 °F /  1.2 °C 29.9in /  1012.9hPa Calm     95% 0in /  0.0mm 0 W/m2
23:07 35.4 °F /  1.9 °C 34.2 °F /  1.2 °C 29.9in /  1012.9hPa Calm     95% 0in /  0.0mm 0 W/m2
23:12 35.4 °F /  1.9 °C 34.2 °F /  1.2 °C 29.9in /  1012.9hPa Calm   2mph /  3.2km/h 95% 0in /  0.0mm 0 W/m2
23:17 35.4 °F /  1.9 °C 34.2 °F /  1.2 °C 29.9in /  1012.5hPa Calm   2mph /  3.2km/h 95% 0in /  0.0mm 0 W/m2
23:22 35.4 °F /  1.9 °C 34.2 °F /  1.2 °C 29.9in /  1012.5hPa Calm     95% 0in /  0.0mm 0 W/m2
23:27 35.4 °F /  1.9 °C 34.2 °F /  1.2 °C 29.9in /  1012.5hPa Calm   2mph /  3.2km/h 95% 0in /  0.0mm 0 W/m2
23:32 35.4 °F /  1.9 °C 34.2 °F /  1.2 °C 29.9in /  1012.5hPa Calm     95% 0in /  0.0mm 0 W/m2
23:37 35.2 °F /  1.8 °C 34 °F /  1.1 °C 29.9in /  1012.5hPa Calm     95% 0in /  0.0mm 0 W/m2
23:42 35.2 °F /  1.8 °C 34 °F /  1.1 °C 29.9in /  1012.5hPa Calm     95% 0.01in /  0.2mm 0 W/m2
23:47 35.2 °F /  1.8 °C 34 °F /  1.1 °C 29.9in /  1012.5hPa Calm     95% 0.01in /  0.2mm 0 W/m2
23:52 35.2 °F /  1.8 °C 34 °F /  1.1 °C 29.9in /  1012.5hPa Calm     95% 0.02in /  0.5mm 0 W/m2
23:57 35.1 °F /  1.7 °C 33.8 °F /  1 °C 29.9in /  1012.5hPa Calm     95% 0.02in /  0.5mm 0 W/m2
Juneau County Weather
Compliments of Weather Underground - 4 mb